sensor_id;sensor_type;location;lat;lon;timestamp;pressure;altitude;pressure_sealevel;temperature;humidity
69245;BME280;56357;52.304;4.870;2023-12-29T00:02:21;100754.03;;;16.61;57.38
69245;BME280;56357;52.304;4.870;2023-12-29T00:04:47;100753.16;;;16.56;57.54
69245;BME280;56357;52.304;4.870;2023-12-29T00:07:13;100780.53;;;16.54;57.70
69245;BME280;56357;52.304;4.870;2023-12-29T00:09:40;100751.50;;;16.60;57.54
69245;BME280;56357;52.304;4.870;2023-12-29T00:12:07;100754.88;;;16.62;57.70
69245;BME280;56357;52.304;4.870;2023-12-29T00:14:37;100739.66;;;16.47;57.77
69245;BME280;56357;52.304;4.870;2023-12-29T00:17:03;100762.06;;;16.53;57.66
69245;BME280;56357;52.304;4.870;2023-12-29T00:19:29;100752.59;;;16.54;57.86
69245;BME280;56357;52.304;4.870;2023-12-29T00:21:56;100749.50;;;16.55;57.75
69245;BME280;56357;52.304;4.870;2023-12-29T00:24:24;100745.88;;;16.50;57.76
69245;BME280;56357;52.304;4.870;2023-12-29T00:26:51;100751.19;;;16.56;57.58
69245;BME280;56357;52.304;4.870;2023-12-29T00:29:17;100732.75;;;16.60;57.36
69245;BME280;56357;52.304;4.870;2023-12-29T00:31:43;100732.19;;;16.58;57.83
69245;BME280;56357;52.304;4.870;2023-12-29T00:34:10;100712.09;;;16.61;57.04
69245;BME280;56357;52.304;4.870;2023-12-29T00:36:36;100703.94;;;16.50;57.87
69245;BME280;56357;52.304;4.870;2023-12-29T00:39:02;100707.31;;;16.57;57.72
69245;BME280;56357;52.304;4.870;2023-12-29T00:41:29;100711.19;;;16.51;58.07
69245;BME280;56357;52.304;4.870;2023-12-29T00:43:55;100712.31;;;16.50;57.84
69245;BME280;56357;52.304;4.870;2023-12-29T00:46:21;100714.47;;;16.37;58.23
69245;BME280;56357;52.304;4.870;2023-12-29T00:48:48;100720.06;;;16.42;57.94
69245;BME280;56357;52.304;4.870;2023-12-29T00:51:14;100713.94;;;16.45;57.92
69245;BME280;56357;52.304;4.870;2023-12-29T00:53:40;100720.09;;;16.47;57.77
69245;BME280;56357;52.304;4.870;2023-12-29T00:56:10;100708.88;;;16.42;57.94
69245;BME280;56357;52.304;4.870;2023-12-29T00:58:37;100713.94;;;16.45;58.09
69245;BME280;56357;52.304;4.870;2023-12-29T01:01:06;100716.50;;;16.52;57.67
69245;BME280;56357;52.304;4.870;2023-12-29T01:03:33;100717.91;;;16.50;57.75
69245;BME280;56357;52.304;4.870;2023-12-29T01:06:00;100705.59;;;16.51;57.82
69245;BME280;56357;52.304;4.870;2023-12-29T01:08:26;100705.00;;;16.43;58.13
69245;BME280;56357;52.304;4.870;2023-12-29T01:10:53;100715.59;;;16.41;57.90
69245;BME280;56357;52.304;4.870;2023-12-29T01:13:19;100710.84;;;16.42;57.91
69245;BME280;56357;52.304;4.870;2023-12-29T01:15:46;100699.41;;;16.43;57.87
69245;BME280;56357;52.304;4.870;2023-12-29T01:18:12;100704.69;;;16.40;58.20
69245;BME280;56357;52.304;4.870;2023-12-29T01:20:38;100717.81;;;16.39;57.94
69245;BME280;56357;52.304;4.870;2023-12-29T01:23:06;100711.38;;;16.34;58.07
69245;BME280;56357;52.304;4.870;2023-12-29T01:25:32;100701.56;;;16.26;58.24
69245;BME280;56357;52.304;4.870;2023-12-29T01:27:58;100701.63;;;16.36;57.99
69245;BME280;56357;52.304;4.870;2023-12-29T01:30:25;100697.13;;;16.35;58.09
69245;BME280;56357;52.304;4.870;2023-12-29T01:32:51;100694.09;;;16.42;57.69
69245;BME280;56357;52.304;4.870;2023-12-29T01:35:17;100703.84;;;16.34;58.07
69245;BME280;56357;52.304;4.870;2023-12-29T01:37:44;100698.50;;;16.33;58.33
69245;BME280;56357;52.304;4.870;2023-12-29T01:40:10;100698.63;;;16.48;57.51
69245;BME280;56357;52.304;4.870;2023-12-29T01:42:37;100682.63;;;16.43;58.01
69245;BME280;56357;52.304;4.870;2023-12-29T01:45:05;100697.41;;;16.39;57.99
69245;BME280;56357;52.304;4.870;2023-12-29T01:47:32;100691.81;;;16.34;58.14
69245;BME280;56357;52.304;4.870;2023-12-29T01:49:58;100700.25;;;16.44;57.97
69245;BME280;56357;52.304;4.870;2023-12-29T01:52:24;100700.56;;;16.53;57.56
69245;BME280;56357;52.304;4.870;2023-12-29T01:54:51;100699.41;;;16.43;57.99
69245;BME280;56357;52.304;4.870;2023-12-29T01:57:19;100700.28;;;16.49;57.74
69245;BME280;56357;52.304;4.870;2023-12-29T01:59:46;100699.91;;;16.35;57.87
69245;BME280;56357;52.304;4.870;2023-12-29T02:02:14;100720.84;;;16.33;57.98
69245;BME280;56357;52.304;4.870;2023-12-29T02:04:41;100713.88;;;16.35;57.86
69245;BME280;56357;52.304;4.870;2023-12-29T02:07:07;100716.38;;;16.32;58.27
69245;BME280;56357;52.304;4.870;2023-12-29T02:09:34;100707.44;;;16.30;57.92
69245;BME280;56357;52.304;4.870;2023-12-29T02:12:00;100718.34;;;16.31;58.24
69245;BME280;56357;52.304;4.870;2023-12-29T02:14:27;100723.97;;;16.36;58.03
69245;BME280;56357;52.304;4.870;2023-12-29T02:17:01;100730.69;;;16.40;57.76
69245;BME280;56357;52.304;4.870;2023-12-29T02:19:38;100730.94;;;16.39;58.06
69245;BME280;56357;52.304;4.870;2023-12-29T02:22:05;100720.03;;;16.32;57.75
69245;BME280;56357;52.304;4.870;2023-12-29T02:24:33;100731.50;;;16.36;58.10
69245;BME280;56357;52.304;4.870;2023-12-29T02:27:31;100725.13;;;16.40;57.95
69245;BME280;56357;52.304;4.870;2023-12-29T02:30:10;100728.44;;;16.42;57.95
69245;BME280;56357;52.304;4.870;2023-12-29T02:32:39;100723.97;;;16.36;57.65
69245;BME280;56357;52.304;4.870;2023-12-29T02:35:09;100716.63;;;16.20;58.16
69245;BME280;56357;52.304;4.870;2023-12-29T02:37:37;100723.88;;;16.21;58.49
69245;BME280;56357;52.304;4.870;2023-12-29T02:40:06;100728.84;;;16.09;58.53
69245;BME280;56357;52.304;4.870;2023-12-29T02:42:33;100719.13;;;16.22;58.38
69245;BME280;56357;52.304;4.870;2023-12-29T02:44:59;100717.16;;;16.17;58.29
69245;BME280;56357;52.304;4.870;2023-12-29T02:47:26;100700.13;;;16.19;58.17
69245;BME280;56357;52.304;4.870;2023-12-29T02:49:53;100694.81;;;16.17;58.21
69245;BME280;56357;52.304;4.870;2023-12-29T02:52:19;100707.09;;;16.16;58.41
69245;BME280;56357;52.304;4.870;2023-12-29T02:54:46;100705.44;;;16.15;58.47
69245;BME280;56357;52.304;4.870;2023-12-29T02:57:12;100704.28;;;16.16;58.38
69245;BME280;56357;52.304;4.870;2023-12-29T02:59:38;100728.28;;;16.07;58.52
69245;BME280;56357;52.304;4.870;2023-12-29T03:02:05;100725.78;;;16.11;58.09
69245;BME280;56357;52.304;4.870;2023-12-29T03:04:31;100733.66;;;16.19;58.30
69245;BME280;56357;52.304;4.870;2023-12-29T03:06:57;100726.63;;;16.11;58.45
69245;BME280;56357;52.304;4.870;2023-12-29T03:09:24;100734.38;;;16.04;58.28
69245;BME280;56357;52.304;4.870;2023-12-29T03:11:50;100725.78;;;16.11;58.04
69245;BME280;56357;52.304;4.870;2023-12-29T03:14:16;100731.94;;;16.08;58.05
69245;BME280;56357;52.304;4.870;2023-12-29T03:16:43;100729.34;;;16.01;58.62
69245;BME280;56357;52.304;4.870;2023-12-29T03:19:09;100737.47;;;16.03;58.58
69245;BME280;56357;52.304;4.870;2023-12-29T03:21:35;100724.66;;;16.12;58.09
69245;BME280;56357;52.304;4.870;2023-12-29T03:24:02;100728.50;;;16.01;58.57
69245;BME280;56357;52.304;4.870;2023-12-29T03:26:28;100731.59;;;16.04;58.35
69245;BME280;56357;52.304;4.870;2023-12-29T03:28:55;100733.59;;;16.09;58.03
69245;BME280;56357;52.304;4.870;2023-12-29T03:31:21;100730.44;;;16.00;58.37
69245;BME280;56357;52.304;4.870;2023-12-29T03:33:47;100720.44;;;16.04;57.98
69245;BME280;56357;52.304;4.870;2023-12-29T03:36:14;100723.78;;;16.01;58.02
69245;BME280;56357;52.304;4.870;2023-12-29T03:38:40;100724.06;;;16.05;57.80
69245;BME280;56357;52.304;4.870;2023-12-29T03:41:07;100716.25;;;16.02;57.53
69245;BME280;56357;52.304;4.870;2023-12-29T03:43:33;100713.69;;;15.95;57.64
69245;BME280;56357;52.304;4.870;2023-12-29T03:45:59;100714.84;;;16.04;57.76
69245;BME280;56357;52.304;4.870;2023-12-29T03:48:26;100708.16;;;16.05;58.09
69245;BME280;56357;52.304;4.870;2023-12-29T03:50:52;100696.97;;;16.05;57.80
69245;BME280;56357;52.304;4.870;2023-12-29T03:53:18;100704.78;;;16.03;57.96
69245;BME280;56357;52.304;4.870;2023-12-29T03:55:45;100684.38;;;16.03;57.75
69245;BME280;56357;52.304;4.870;2023-12-29T03:58:11;100684.66;;;15.96;57.69
69245;BME280;56357;52.304;4.870;2023-12-29T04:00:38;100672.06;;;15.99;57.00
69245;BME280;56357;52.304;4.870;2023-12-29T04:03:06;100679.59;;;15.93;57.31
69245;BME280;56357;52.304;4.870;2023-12-29T04:05:33;100686.31;;;15.97;58.07
69245;BME280;56357;52.304;4.870;2023-12-29T04:07:59;100680.16;;;15.95;57.12
69245;BME280;56357;52.304;4.870;2023-12-29T04:10:25;100702.53;;;16.00;56.99
69245;BME280;56357;52.304;4.870;2023-12-29T04:12:52;100698.63;;;15.96;58.23
69245;BME280;56357;52.304;4.870;2023-12-29T04:15:18;100694.72;;;16.02;57.70
69245;BME280;56357;52.304;4.870;2023-12-29T04:17:44;100694.72;;;16.02;57.45
69245;BME280;56357;52.304;4.870;2023-12-29T04:20:11;100703.66;;;16.04;57.91
69245;BME280;56357;52.304;4.870;2023-12-29T04:22:37;100710.91;;;16.00;57.70
69245;BME280;56357;52.304;4.870;2023-12-29T04:25:04;100697.50;;;15.97;57.14
69245;BME280;56357;52.304;4.870;2023-12-29T04:27:30;100703.06;;;15.97;57.37
69245;BME280;56357;52.304;4.870;2023-12-29T04:29:56;100685.53;;;16.07;58.08
69245;BME280;56357;52.304;4.870;2023-12-29T04:32:23;100704.22;;;16.01;57.42
69245;BME280;56357;52.304;4.870;2023-12-29T04:34:49;100695.50;;;15.93;57.59
69245;BME280;56357;52.304;4.870;2023-12-29T04:37:15;100699.47;;;16.02;58.08
69245;BME280;56357;52.304;4.870;2023-12-29T04:39:42;100686.91;;;16.04;57.66
69245;BME280;56357;52.304;4.870;2023-12-29T04:42:08;100677.66;;;15.99;57.52
69245;BME280;56357;52.304;4.870;2023-12-29T04:44:34;100685.25;;;16.03;57.68
69245;BME280;56357;52.304;4.870;2023-12-29T04:47:01;100678.22;;;15.96;57.46
69245;BME280;56357;52.304;4.870;2023-12-29T04:49:27;100674.00;;;15.93;57.70
69245;BME280;56357;52.304;4.870;2023-12-29T04:51:53;100675.94;;;15.88;57.86
69245;BME280;56357;52.304;4.870;2023-12-29T04:54:20;100677.72;;;16.04;57.89
69245;BME280;56357;52.304;4.870;2023-12-29T04:56:46;100678.16;;;15.86;57.98
69245;BME280;56357;52.304;4.870;2023-12-29T04:59:12;100682.06;;;15.85;58.20
69245;BME280;56357;52.304;4.870;2023-12-29T05:01:39;100671.19;;;15.88;57.74
69245;BME280;56357;52.304;4.870;2023-12-29T05:04:05;100672.59;;;15.91;57.96
69245;BME280;56357;52.304;4.870;2023-12-29T05:06:32;100675.41;;;15.96;57.76
69245;BME280;56357;52.304;4.870;2023-12-29T05:08:58;100694.47;;;16.04;57.65
69245;BME280;56357;52.304;4.870;2023-12-29T05:11:24;100678.50;;;15.94;57.36
69245;BME280;56357;52.304;4.870;2023-12-29T05:13:51;100680.66;;;15.87;57.72
69245;BME280;56357;52.304;4.870;2023-12-29T05:16:17;100697.41;;;15.87;57.97
69245;BME280;56357;52.304;4.870;2023-12-29T05:18:43;100690.47;;;15.95;57.91
69245;BME280;56357;52.304;4.870;2023-12-29T05:21:19;100667.91;;;15.96;57.48
69245;BME280;56357;52.304;4.870;2023-12-29T05:23:46;100652.50;;;15.94;57.86
69245;BME280;56357;52.304;4.870;2023-12-29T05:26:14;100666.19;;;15.95;58.03
69245;BME280;56357;52.304;4.870;2023-12-29T05:28:40;100674.00;;;15.93;57.52
69245;BME280;56357;52.304;4.870;2023-12-29T05:31:07;100684.31;;;15.93;57.68
69245;BME280;56357;52.304;4.870;2023-12-29T05:33:33;100680.94;;;15.86;57.70
69245;BME280;56357;52.304;4.870;2023-12-29T05:36:05;100685.72;;;15.90;57.86
69245;BME280;56357;52.304;4.870;2023-12-29T05:38:33;100668.19;;;16.00;57.56
69245;BME280;56357;52.304;4.870;2023-12-29T05:41:00;100678.72;;;15.88;57.59
69245;BME280;56357;52.304;4.870;2023-12-29T05:43:28;100675.94;;;15.88;57.95
69245;BME280;56357;52.304;4.870;2023-12-29T05:45:55;100668.41;;;15.93;57.76
69245;BME280;56357;52.304;4.870;2023-12-29T05:48:21;100671.78;;;15.95;57.74
69245;BME280;56357;52.304;4.870;2023-12-29T05:50:49;100679.59;;;15.98;57.50
69245;BME280;56357;52.304;4.870;2023-12-29T05:53:16;100672.28;;;15.87;58.06
69245;BME280;56357;52.304;4.870;2023-12-29T05:55:43;100672.00;;;15.89;57.58
69245;BME280;56357;52.304;4.870;2023-12-29T05:58:10;100661.47;;;15.96;57.75
69245;BME280;56357;52.304;4.870;2023-12-29T06:00:37;100656.97;;;15.95;57.68
69245;BME280;56357;52.304;4.870;2023-12-29T06:03:03;100651.66;;;15.93;57.72
69245;BME280;56357;52.304;4.870;2023-12-29T06:05:30;100655.88;;;15.96;57.89
69245;BME280;56357;52.304;4.870;2023-12-29T06:07:56;100643.28;;;15.98;57.60
69245;BME280;56357;52.304;4.870;2023-12-29T06:10:23;100644.06;;;15.84;57.75
69245;BME280;56357;52.304;4.870;2023-12-29T06:12:50;100643.53;;;15.87;58.25
69245;BME280;56357;52.304;4.870;2023-12-29T06:15:16;100642.72;;;15.91;57.93
69245;BME280;56357;52.304;4.870;2023-12-29T06:17:42;100649.38;;;15.85;57.99
69245;BME280;56357;52.304;4.870;2023-12-29T06:20:09;100642.19;;;15.94;57.73
69245;BME280;56357;52.304;4.870;2023-12-29T06:22:40;100633.81;;;15.94;57.77
69245;BME280;56357;52.304;4.870;2023-12-29T06:25:12;100632.03;;;15.83;58.08
69245;BME280;56357;52.304;4.870;2023-12-29T06:27:39;100639.34;;;15.84;57.90
69245;BME280;56357;52.304;4.870;2023-12-29T06:30:07;100651.66;;;15.93;57.76
69245;BME280;56357;52.304;4.870;2023-12-29T06:32:34;100652.44;;;15.84;57.79
69245;BME280;56357;52.304;4.870;2023-12-29T06:35:00;100651.09;;;15.91;58.25
69245;BME280;56357;52.304;4.870;2023-12-29T06:37:28;100656.09;;;15.89;58.04
69245;BME280;56357;52.304;4.870;2023-12-29T06:39:54;100664.19;;;15.86;57.82
69245;BME280;56357;52.304;4.870;2023-12-29T06:42:21;100655.53;;;15.87;58.05
69245;BME280;56357;52.304;4.870;2023-12-29T06:44:48;100670.34;;;15.88;57.68
69245;BME280;56357;52.304;4.870;2023-12-29T06:47:14;100673.72;;;15.90;57.82
69245;BME280;56357;52.304;4.870;2023-12-29T06:49:41;100666.75;;;15.92;57.74
69245;BME280;56357;52.304;4.870;2023-12-29T06:52:07;100666.75;;;15.92;57.93
69245;BME280;56357;52.304;4.870;2023-12-29T06:54:34;100671.72;;;15.85;58.01
69245;BME280;56357;52.304;4.870;2023-12-29T06:57:00;100673.13;;;15.88;58.05
69245;BME280;56357;52.304;4.870;2023-12-29T06:59:27;100670.31;;;15.83;57.74
69245;BME280;56357;52.304;4.870;2023-12-29T07:01:53;100668.63;;;15.82;58.22
69245;BME280;56357;52.304;4.870;2023-12-29T07:04:19;100673.41;;;15.86;57.97
69245;BME280;56357;52.304;4.870;2023-12-29T07:06:46;100676.78;;;15.88;57.89
69245;BME280;56357;52.304;4.870;2023-12-29T07:09:12;100681.50;;;15.88;57.89
69245;BME280;56357;52.304;4.870;2023-12-29T07:11:39;100685.16;;;15.88;57.93
69245;BME280;56357;52.304;4.870;2023-12-29T07:14:05;100670.13;;;15.94;57.80
69245;BME280;56357;52.304;4.870;2023-12-29T07:16:32;100679.88;;;15.92;57.82
69245;BME280;56357;52.304;4.870;2023-12-29T07:18:58;100677.91;;;15.92;57.89
69245;BME280;56357;52.304;4.870;2023-12-29T07:21:25;100678.72;;;15.88;58.02
69245;BME280;56357;52.304;4.870;2023-12-29T07:23:51;100677.91;;;15.92;57.78
69245;BME280;56357;52.304;4.870;2023-12-29T07:26:17;100678.69;;;15.83;57.96
69245;BME280;56357;52.304;4.870;2023-12-29T07:28:44;100683.72;;;15.86;58.10
69245;BME280;56357;52.304;4.870;2023-12-29T07:31:10;100693.81;;;15.87;57.83
69245;BME280;56357;52.304;4.870;2023-12-29T07:33:37;100680.44;;;15.94;58.33
69245;BME280;56357;52.304;4.870;2023-12-29T07:36:04;100690.41;;;15.80;58.11
69245;BME280;56357;52.304;4.870;2023-12-29T07:38:30;100696.59;;;15.87;58.12
69245;BME280;56357;52.304;4.870;2023-12-29T07:40:57;100700.50;;;15.86;58.17
69245;BME280;56357;52.304;4.870;2023-12-29T07:43:24;100690.69;;;15.83;58.13
69245;BME280;56357;52.304;4.870;2023-12-29T07:45:50;100687.56;;;15.75;58.31
69245;BME280;56357;52.304;4.870;2023-12-29T07:48:17;100689.63;;;15.89;57.98
69245;BME280;56357;52.304;4.870;2023-12-29T07:50:43;100689.03;;;15.87;58.08
69245;BME280;56357;52.304;4.870;2023-12-29T07:53:09;100691.84;;;15.87;58.30
69245;BME280;56357;52.304;4.870;2023-12-29T07:55:39;100686.25;;;15.87;58.08
69245;BME280;56357;52.304;4.870;2023-12-29T07:58:06;100688.75;;;15.84;58.24
69245;BME280;56357;52.304;4.870;2023-12-29T08:00:35;100699.63;;;15.80;58.36
69245;BME280;56357;52.304;4.870;2023-12-29T08:03:01;100688.44;;;15.80;58.06
69245;BME280;56357;52.304;4.870;2023-12-29T08:05:27;100687.00;;;15.73;58.30
69245;BME280;56357;52.304;4.870;2023-12-29T08:07:54;100704.34;;;15.80;58.28
69245;BME280;56357;52.304;4.870;2023-12-29T08:10:21;100713.28;;;15.77;58.68
69245;BME280;56357;52.304;4.870;2023-12-29T08:12:47;100697.91;;;15.79;58.38
69245;BME280;56357;52.304;4.870;2023-12-29T08:15:13;100700.13;;;15.77;58.30
69245;BME280;56357;52.304;4.870;2023-12-29T08:17:40;100715.25;;;15.81;58.34
69245;BME280;56357;52.304;4.870;2023-12-29T08:20:06;100706.88;;;15.81;58.36
69245;BME280;56357;52.304;4.870;2023-12-29T08:22:33;100697.41;;;15.87;58.18
69245;BME280;56357;52.304;4.870;2023-12-29T08:24:59;100708.00;;;15.85;58.58
69245;BME280;56357;52.304;4.870;2023-12-29T08:27:26;100708.59;;;15.87;58.23
69245;BME280;56357;52.304;4.870;2023-12-29T08:29:52;100715.59;;;15.90;58.30
69245;BME280;56357;52.304;4.870;2023-12-29T08:32:19;100708.28;;;15.79;58.36
69245;BME280;56357;52.304;4.870;2023-12-29T08:34:45;100727.53;;;15.75;58.46
69245;BME280;56357;52.304;4.870;2023-12-29T08:37:12;100706.34;;;15.84;58.25
69245;BME280;56357;52.304;4.870;2023-12-29T08:39:40;100718.63;;;15.83;58.28
69245;BME280;56357;52.304;4.870;2023-12-29T08:42:08;100703.84;;;15.83;57.96
69245;BME280;56357;52.304;4.870;2023-12-29T08:44:34;100686.81;;;15.84;58.15
69245;BME280;56357;52.304;4.870;2023-12-29T08:47:00;100712.22;;;15.83;58.34
69245;BME280;56357;52.304;4.870;2023-12-29T08:49:27;100708.31;;;15.89;58.28
69245;BME280;56357;52.304;4.870;2023-12-29T08:51:54;100699.91;;;15.79;58.53
69245;BME280;56357;52.304;4.870;2023-12-29T08:54:20;100700.50;;;15.91;58.00
69245;BME280;56357;52.304;4.870;2023-12-29T08:56:46;100702.47;;;15.90;58.19
69245;BME280;56357;52.304;4.870;2023-12-29T08:59:13;100701.84;;;15.83;58.22
69245;BME280;56357;52.304;4.870;2023-12-29T09:01:39;100701.84;;;15.83;58.26
69245;BME280;56357;52.304;4.870;2023-12-29T09:04:06;100708.00;;;15.85;58.24
69245;BME280;56357;52.304;4.870;2023-12-29T09:06:32;100706.28;;;15.79;58.31
69245;BME280;56357;52.304;4.870;2023-12-29T09:08:59;100707.50;;;15.88;58.26
69245;BME280;56357;52.304;4.870;2023-12-29T09:11:26;100698.53;;;15.86;58.13
69245;BME280;56357;52.304;4.870;2023-12-29T09:13:52;100718.63;;;15.83;58.05
69245;BME280;56357;52.304;4.870;2023-12-29T09:16:19;100686.19;;;15.77;58.27
69245;BME280;56357;52.304;4.870;2023-12-29T09:18:45;100699.03;;;15.78;58.78
69245;BME280;56357;52.304;4.870;2023-12-29T09:21:12;100720.84;;;15.81;58.45
69245;BME280;56357;52.304;4.870;2023-12-29T09:23:38;100717.75;;;15.78;58.43
69245;BME280;56357;52.304;4.870;2023-12-29T09:26:05;100723.03;;;15.79;58.51
69245;BME280;56357;52.304;4.870;2023-12-29T09:28:32;100721.97;;;15.85;58.52
69245;BME280;56357;52.304;4.870;2023-12-29T09:30:59;100723.63;;;15.81;58.47
69245;BME280;56357;52.304;4.870;2023-12-29T09:33:25;100733.16;;;15.85;58.31
69245;BME280;56357;52.304;4.870;2023-12-29T09:35:51;100725.63;;;15.86;58.33
69245;BME280;56357;52.304;4.870;2023-12-29T09:38:18;100732.56;;;15.78;58.42
69245;BME280;56357;52.304;4.870;2023-12-29T09:40:46;100730.34;;;15.85;58.07
69245;BME280;56357;52.304;4.870;2023-12-29T09:43:14;100736.78;;;15.86;58.23
69245;BME280;56357;52.304;4.870;2023-12-29T09:45:42;100745.47;;;15.89;58.30
69245;BME280;56357;52.304;4.870;2023-12-29T09:48:12;100740.94;;;15.83;58.41
69245;BME280;56357;52.304;4.870;2023-12-29T09:50:40;100752.66;;;15.75;58.71
69245;BME280;56357;52.304;4.870;2023-12-29T09:53:07;100766.59;;;15.75;58.74
69245;BME280;56357;52.304;4.870;2023-12-29T09:55:37;100749.31;;;15.83;58.59
69245;BME280;56357;52.304;4.870;2023-12-29T09:58:04;100744.88;;;15.87;58.43
69245;BME280;56357;52.304;4.870;2023-12-29T10:00:33;100731.19;;;15.81;58.59
69245;BME280;56357;52.304;4.870;2023-12-29T10:03:00;100766.34;;;15.77;58.23
69245;BME280;56357;52.304;4.870;2023-12-29T10:05:27;100772.50;;;15.79;58.60
69245;BME280;56357;52.304;4.870;2023-12-29T10:07:53;100778.66;;;15.81;58.59
69245;BME280;56357;52.304;4.870;2023-12-29T10:10:20;100788.19;;;15.85;58.36
69245;BME280;56357;52.304;4.870;2023-12-29T10:12:48;100786.75;;;15.82;58.22
69245;BME280;56357;52.304;4.870;2023-12-29T10:15:23;100788.97;;;15.80;58.50
69245;BME280;56357;52.304;4.870;2023-12-29T10:20:52;100788.19;;;15.85;58.36
69245;BME280;56357;52.304;4.870;2023-12-29T10:23:43;100791.56;;;15.87;58.36
69245;BME280;56357;52.304;4.870;2023-12-29T10:26:12;100797.34;;;15.80;58.39
69245;BME280;56357;52.304;4.870;2023-12-29T10:28:39;100805.19;;;15.83;58.53
69245;BME280;56357;52.304;4.870;2023-12-29T10:31:05;100793.75;;;15.85;58.14
69245;BME280;56357;52.304;4.870;2023-12-29T10:33:31;100803.22;;;15.84;58.36
69245;BME280;56357;52.304;4.870;2023-12-29T10:36:00;100801.81;;;15.81;58.33
69245;BME280;56357;52.304;4.870;2023-12-29T10:38:28;100811.88;;;15.82;58.21
69245;BME280;56357;52.304;4.870;2023-12-29T10:40:54;100808.84;;;15.89;57.98
69245;BME280;56357;52.304;4.870;2023-12-29T10:43:24;100808.59;;;15.90;58.16
69245;BME280;56357;52.304;4.870;2023-12-29T10:46:05;100805.75;;;15.85;58.12
69245;BME280;56357;52.304;4.870;2023-12-29T10:48:32;100798.25;;;15.91;58.00
69245;BME280;56357;52.304;4.870;2023-12-29T10:50:59;100792.09;;;15.89;58.03
69245;BME280;56357;52.304;4.870;2023-12-29T10:53:27;100795.47;;;15.91;58.16
69245;BME280;56357;52.304;4.870;2023-12-29T10:55:54;100801.97;;;15.96;57.98
69245;BME280;56357;52.304;4.870;2023-12-29T10:58:23;100793.78;;;15.90;57.83
69245;BME280;56357;52.304;4.870;2023-12-29T11:00:52;100797.13;;;15.87;58.08
69245;BME280;56357;52.304;4.870;2023-12-29T11:03:18;100811.97;;;15.92;57.78
69245;BME280;56357;52.304;4.870;2023-12-29T11:05:45;100801.38;;;15.94;58.02
69245;BME280;56357;52.304;4.870;2023-12-29T11:08:19;100803.59;;;15.92;58.03
69245;BME280;56357;52.304;4.870;2023-12-29T11:10:48;100808.59;;;15.90;58.13
69245;BME280;56357;52.304;4.870;2023-12-29T11:13:15;100820.28;;;15.87;58.18
69245;BME280;56357;52.304;4.870;2023-12-29T11:15:43;100812.50;;;15.89;58.26
69245;BME280;56357;52.304;4.870;2023-12-29T11:18:15;100820.09;;;15.94;57.81
69245;BME280;56357;52.304;4.870;2023-12-29T11:20:43;100815.88;;;15.91;57.86
69245;BME280;56357;52.304;4.870;2023-12-29T11:23:10;100810.81;;;15.88;57.79
69245;BME280;56357;52.304;4.870;2023-12-29T11:25:38;100821.50;;;15.96;57.74
69245;BME280;56357;52.304;4.870;2023-12-29T11:28:10;100817.81;;;15.91;57.82
69245;BME280;56357;52.304;4.870;2023-12-29T11:30:37;100826.50;;;15.94;58.04
69245;BME280;56357;52.304;4.870;2023-12-29T11:33:15;100823.38;;;15.91;58.15
69245;BME280;56357;52.304;4.870;2023-12-29T11:35:47;100833.97;;;15.89;57.88
69245;BME280;56357;52.304;4.870;2023-12-29T11:41:09;100822.59;;;15.95;57.90
69245;BME280;56357;52.304;4.870;2023-12-29T11:43:40;100822.63;;;16.00;57.71
69245;BME280;56357;52.304;4.870;2023-12-29T11:46:06;100832.63;;;15.91;58.13
69245;BME280;56357;52.304;4.870;2023-12-29T11:48:53;100833.19;;;15.93;58.15
69245;BME280;56357;52.304;4.870;2023-12-29T11:51:46;100837.69;;;15.94;58.07
69245;BME280;56357;52.304;4.870;2023-12-29T11:54:27;100820.56;;;15.86;57.88
69245;BME280;56357;52.304;4.870;2023-12-29T11:56:54;100826.50;;;15.94;58.00
69245;BME280;56357;52.304;4.870;2023-12-29T11:59:22;100833.97;;;15.89;58.25
69245;BME280;56357;52.304;4.870;2023-12-29T12:01:59;100824.53;;;15.95;57.88
69245;BME280;56357;52.304;4.870;2023-12-29T12:04:44;100821.75;;;15.95;57.86
69245;BME280;56357;52.304;4.870;2023-12-29T12:12:55;100816.41;;;15.88;57.76
69245;BME280;56357;52.304;4.870;2023-12-29T12:17:56;100821.16;;;15.88;58.15
69245;BME280;56357;52.304;4.870;2023-12-29T12:20:23;100814.78;;;15.97;57.68
69245;BME280;56357;52.304;4.870;2023-12-29T12:22:59;100817.59;;;15.97;57.50
69245;BME280;56357;52.304;4.870;2023-12-29T12:25:27;100825.38;;;15.90;57.54
69245;BME280;56357;52.304;4.870;2023-12-29T12:27:54;100819.47;;;15.87;57.59
69245;BME280;56357;52.304;4.870;2023-12-29T12:30:20;100807.16;;;15.83;57.83
69245;BME280;56357;52.304;4.870;2023-12-29T12:33:00;100814.44;;;15.89;57.69
69245;BME280;56357;52.304;4.870;2023-12-29T12:35:26;100813.88;;;15.87;57.87
69245;BME280;56357;52.304;4.870;2023-12-29T12:38:22;100813.63;;;15.88;57.84
69245;BME280;56357;52.304;4.870;2023-12-29T12:40:50;100814.69;;;15.82;57.80
69245;BME280;56357;52.304;4.870;2023-12-29T12:43:17;100795.75;;;15.89;58.21
69245;BME280;56357;52.304;4.870;2023-12-29T12:46:02;100786.28;;;15.95;57.68
69245;BME280;56357;52.304;4.870;2023-12-29T12:48:41;100785.97;;;15.87;57.42
69245;BME280;56357;52.304;4.870;2023-12-29T12:51:10;100794.84;;;15.84;57.80
69245;BME280;56357;52.304;4.870;2023-12-29T12:53:40;100807.47;;;15.86;57.83
69245;BME280;56357;52.304;4.870;2023-12-29T12:56:08;100791.84;;;15.90;57.95
69245;BME280;56357;52.304;4.870;2023-12-29T12:58:34;100791.50;;;15.82;57.66
69245;BME280;56357;52.304;4.870;2023-12-29T13:01:01;100795.75;;;15.89;57.86
69245;BME280;56357;52.304;4.870;2023-12-29T13:03:27;100785.13;;;15.91;57.66
69245;BME280;56357;52.304;4.870;2023-12-29T13:05:56;100796.59;;;15.90;57.61
69245;BME280;56357;52.304;4.870;2023-12-29T13:08:23;100802.72;;;15.87;57.71